createdAt,value
2018-10-16T00:00:30.813Z,99.90
2018-10-16T00:03:13.552Z,99.90
2018-10-16T00:05:55.483Z,99.90
2018-10-16T00:08:34.266Z,99.90
2018-10-16T00:11:13.200Z,99.90
2018-10-16T00:13:55.484Z,99.90
2018-10-16T00:16:31.940Z,99.90
2018-10-16T00:19:09.709Z,99.90
2018-10-16T00:21:49.033Z,99.90
2018-10-16T00:24:25.606Z,99.90
2018-10-16T00:27:02.051Z,99.90
2018-10-16T00:29:38.657Z,99.90
2018-10-16T00:32:18.300Z,99.90
2018-10-16T00:34:55.861Z,99.90
2018-10-16T00:37:33.327Z,99.90
2018-10-16T00:40:12.357Z,99.90
2018-10-16T00:42:53.497Z,99.90
2018-10-16T00:45:35.409Z,99.90
2018-10-16T00:48:15.449Z,99.90
2018-10-16T00:50:55.209Z,99.90
2018-10-16T00:53:35.593Z,99.90
2018-10-16T00:56:12.910Z,99.90
2018-10-16T00:58:50.542Z,99.90
2018-10-16T01:01:30.455Z,99.90
2018-10-16T01:04:09.538Z,99.90
2018-10-16T01:06:46.595Z,99.90
2018-10-16T01:09:23.060Z,99.90
2018-10-16T01:11:59.835Z,99.90
2018-10-16T01:14:36.722Z,99.90
2018-10-16T01:17:15.589Z,99.90
2018-10-16T01:19:52.097Z,99.90
2018-10-16T01:22:28.644Z,99.90
2018-10-16T01:25:05.953Z,99.90
2018-10-16T01:27:45.463Z,99.90
2018-10-16T01:30:22.110Z,99.90
2018-10-16T01:32:59.384Z,99.90
2018-10-16T01:35:36.125Z,99.90
2018-10-16T01:38:15.465Z,99.90
2018-10-16T01:40:52.593Z,99.90
2018-10-16T01:43:32.299Z,99.90
2018-10-16T01:46:11.001Z,99.90
2018-10-16T01:48:48.749Z,99.90
2018-10-16T01:51:27.295Z,99.90
2018-10-16T01:54:07.872Z,99.90
2018-10-16T01:56:45.444Z,99.90
2018-10-16T01:59:23.449Z,99.90
2018-10-16T02:02:01.713Z,99.90
2018-10-16T02:04:39.867Z,99.90
2018-10-16T02:07:20.513Z,99.90
2018-10-16T02:09:57.961Z,99.90
2018-10-16T02:12:34.705Z,99.90
2018-10-16T02:15:13.477Z,99.90
2018-10-16T02:17:53.903Z,99.90
2018-10-16T02:20:32.921Z,99.90
2018-10-16T02:23:13.014Z,99.90
2018-10-16T02:25:50.189Z,99.90
2018-10-16T02:28:27.930Z,99.90
2018-10-16T02:31:05.449Z,99.90
2018-10-16T02:33:44.532Z,99.90
2018-10-16T02:36:22.149Z,99.90
2018-10-16T02:39:00.048Z,99.90
2018-10-16T02:41:37.442Z,99.90
2018-10-16T02:44:16.510Z,99.90
2018-10-16T02:46:56.428Z,99.90
2018-10-16T02:49:36.009Z,99.90
2018-10-16T02:52:13.344Z,99.90
2018-10-16T02:54:52.481Z,99.90
2018-10-16T02:57:32.342Z,99.90
2018-10-16T03:00:09.244Z,99.90
2018-10-16T03:02:48.498Z,99.90
2018-10-16T03:05:25.321Z,99.90
2018-10-16T03:08:03.019Z,99.90
2018-10-16T03:10:40.381Z,99.90
2018-10-16T03:13:16.969Z,99.90
2018-10-16T03:15:54.642Z,99.90
2018-10-16T03:18:32.261Z,99.90
2018-10-16T03:21:09.615Z,99.90
2018-10-16T03:23:46.769Z,99.90
2018-10-16T03:26:23.273Z,99.90
2018-10-16T03:29:00.409Z,99.90
2018-10-16T03:31:37.781Z,99.90
2018-10-16T03:34:13.733Z,99.90
2018-10-16T03:36:50.359Z,99.90
2018-10-16T03:39:27.984Z,99.90
2018-10-16T03:42:05.292Z,99.90
2018-10-16T03:44:42.389Z,99.90
2018-10-16T03:47:18.884Z,99.90
2018-10-16T03:49:56.129Z,99.90
2018-10-16T03:52:33.210Z,99.90
2018-10-16T03:55:10.650Z,99.90
2018-10-16T03:57:49.218Z,99.90
2018-10-16T04:00:27.736Z,99.90
2018-10-16T04:03:06.038Z,99.90
2018-10-16T04:05:44.365Z,99.90
2018-10-16T04:08:22.898Z,99.90
2018-10-16T04:11:01.361Z,99.90
2018-10-16T04:13:37.769Z,99.90
2018-10-16T04:16:16.453Z,99.90
2018-10-16T04:18:54.740Z,99.90
2018-10-16T04:21:39.613Z,99.90
2018-10-16T04:24:16.166Z,99.90
2018-10-16T04:26:53.380Z,99.90
2018-10-16T04:29:29.232Z,99.90
2018-10-16T04:32:07.877Z,99.90
2018-10-16T04:34:45.410Z,99.90
2018-10-16T04:37:22.347Z,99.90
2018-10-16T04:40:00.869Z,99.90
2018-10-16T04:42:40.661Z,99.90
2018-10-16T04:45:18.256Z,99.90
2018-10-16T04:47:55.338Z,99.90
2018-10-16T04:50:31.951Z,99.90
2018-10-16T04:53:10.373Z,99.90
2018-10-16T04:55:46.529Z,99.90
2018-10-16T04:58:23.716Z,99.90
2018-10-16T05:01:04.856Z,99.90
2018-10-16T05:03:43.231Z,99.90
2018-10-16T05:06:21.800Z,99.90
2018-10-16T05:08:59.049Z,99.90
2018-10-16T05:11:40.164Z,99.90
2018-10-16T05:14:19.697Z,99.90
2018-10-16T05:16:56.145Z,99.90
2018-10-16T05:19:33.421Z,99.90
2018-10-16T05:22:14.459Z,99.90
2018-10-16T05:24:51.862Z,99.90
2018-10-16T05:27:28.110Z,99.90
2018-10-16T05:30:06.385Z,99.90
2018-10-16T05:32:44.162Z,99.90
2018-10-16T05:35:25.445Z,99.90
2018-10-16T05:38:04.281Z,99.90
2018-10-16T05:40:41.727Z,99.90
2018-10-16T05:43:19.949Z,99.90
2018-10-16T05:45:56.416Z,99.90
2018-10-16T05:48:33.808Z,99.90
2018-10-16T05:51:12.101Z,99.90
2018-10-16T05:53:49.486Z,99.90
2018-10-16T05:56:28.364Z,99.90
2018-10-16T05:59:05.803Z,99.90
2018-10-16T06:01:44.229Z,99.90
2018-10-16T06:04:21.860Z,99.90
2018-10-16T06:06:59.427Z,99.90
2018-10-16T06:09:37.838Z,99.90
2018-10-16T06:12:14.149Z,99.90
2018-10-16T06:14:53.407Z,99.90
2018-10-16T06:17:29.605Z,99.90
2018-10-16T06:20:10.296Z,99.90
2018-10-16T06:22:46.514Z,99.90
2018-10-16T06:25:22.869Z,99.90
2018-10-16T06:28:02.746Z,99.90
2018-10-16T06:30:41.427Z,99.90
2018-10-16T06:33:21.353Z,99.90
2018-10-16T06:36:00.713Z,99.90
2018-10-16T06:38:36.743Z,99.90
2018-10-16T06:41:13.883Z,99.90
2018-10-16T06:43:51.459Z,99.90
2018-10-16T06:46:29.512Z,99.90
2018-10-16T06:49:04.771Z,99.90
2018-10-16T06:51:40.430Z,99.90
2018-10-16T06:54:15.947Z,99.90
2018-10-16T06:56:51.831Z,99.90
2018-10-16T06:59:27.455Z,99.90
2018-10-16T07:02:03.219Z,99.90
2018-10-16T07:04:38.880Z,99.90
2018-10-16T07:07:14.921Z,99.90
2018-10-16T07:09:50.374Z,99.90
2018-10-16T07:12:26.218Z,99.90
2018-10-16T07:15:02.087Z,99.90
2018-10-16T07:17:37.657Z,99.90
2018-10-16T07:20:13.688Z,99.90
2018-10-16T07:22:49.247Z,99.90
2018-10-16T07:25:24.981Z,99.90
2018-10-16T07:28:00.511Z,99.90
2018-10-16T07:30:36.289Z,99.90
2018-10-16T07:33:12.138Z,99.90
2018-10-16T07:35:47.571Z,99.90
2018-10-16T07:38:23.389Z,99.90
2018-10-16T07:40:59.066Z,99.90
2018-10-16T07:43:34.755Z,99.90
2018-10-16T07:46:10.377Z,99.90
2018-10-16T07:48:45.990Z,99.90
2018-10-16T07:51:21.765Z,99.90
2018-10-16T07:53:57.384Z,99.90
2018-10-16T07:56:33.024Z,99.90
2018-10-16T07:59:09.827Z,99.90
2018-10-16T08:01:45.798Z,99.90
2018-10-16T08:04:21.106Z,99.90
2018-10-16T08:06:57.006Z,99.90
2018-10-16T08:09:32.518Z,99.90
2018-10-16T08:12:09.180Z,99.90
2018-10-16T08:14:44.916Z,99.90
2018-10-16T08:17:20.577Z,99.90
2018-10-16T08:19:56.315Z,99.90
2018-10-16T08:22:32.028Z,99.90
2018-10-16T08:25:07.722Z,99.90
2018-10-16T08:27:43.250Z,99.90
2018-10-16T08:30:19.030Z,99.90
2018-10-16T08:32:54.668Z,99.90
2018-10-16T08:35:30.547Z,99.90
2018-10-16T08:38:27.652Z,99.90
2018-10-16T08:41:03.968Z,99.90
2018-10-16T08:43:51.776Z,99.90
2018-10-16T08:46:38.192Z,99.90
2018-10-16T08:49:24.977Z,99.90
2018-10-16T08:52:00.893Z,99.90
2018-10-16T08:54:36.645Z,99.90
2018-10-16T08:57:12.511Z,99.90
2018-10-16T08:59:48.003Z,99.90
2018-10-16T09:02:23.474Z,99.90
2018-10-16T09:04:59.182Z,99.90
2018-10-16T09:07:34.789Z,99.90
2018-10-16T09:10:10.774Z,99.90
2018-10-16T09:12:46.214Z,99.90
2018-10-16T09:15:22.689Z,99.90
2018-10-16T09:17:58.832Z,99.90
2018-10-16T09:20:34.416Z,99.90
2018-10-16T09:23:10.041Z,99.90
2018-10-16T09:25:45.879Z,99.90
2018-10-16T09:28:21.607Z,99.90
2018-10-16T09:30:57.477Z,99.90
2018-10-16T09:33:33.289Z,99.90
2018-10-16T09:36:09.592Z,99.90
2018-10-16T09:38:45.309Z,99.90
2018-10-16T09:41:21.268Z,99.90
2018-10-16T09:43:56.572Z,99.90
2018-10-16T09:46:32.065Z,99.90
2018-10-16T09:49:08.164Z,99.90
2018-10-16T09:51:43.485Z,99.90
2018-10-16T09:54:19.212Z,99.90
2018-10-16T09:56:55.845Z,99.90
2018-10-16T09:59:32.398Z,99.90
2018-10-16T10:02:09.517Z,99.90
2018-10-16T10:04:45.557Z,99.90
2018-10-16T10:07:21.740Z,99.90
2018-10-16T10:09:57.507Z,99.90
2018-10-16T10:12:32.927Z,99.90
2018-10-16T10:15:09.890Z,99.90
2018-10-16T10:17:45.330Z,99.90
2018-10-16T10:20:21.761Z,99.90
2018-10-16T10:22:57.840Z,99.90
2018-10-16T10:25:33.695Z,99.90
2018-10-16T10:28:09.351Z,99.90
2018-10-16T10:30:44.816Z,99.90
2018-10-16T10:33:20.649Z,99.90
2018-10-16T10:35:55.967Z,99.90
2018-10-16T10:38:32.190Z,99.90
2018-10-16T10:41:07.826Z,99.90
2018-10-16T10:43:43.574Z,99.90
2018-10-16T10:46:19.544Z,99.90
2018-10-16T10:48:54.946Z,99.90
2018-10-16T10:51:31.079Z,99.90
2018-10-16T10:54:06.732Z,99.90
2018-10-16T10:56:42.011Z,99.90
2018-10-16T10:59:17.922Z,99.90
2018-10-16T11:01:53.630Z,99.90
2018-10-16T11:04:29.038Z,99.90
2018-10-16T11:07:04.789Z,99.90
2018-10-16T11:09:40.140Z,99.90
2018-10-16T11:12:16.162Z,99.90
2018-10-16T11:14:51.694Z,99.90
2018-10-16T11:17:27.403Z,99.90
2018-10-16T11:20:03.360Z,99.90
2018-10-16T11:22:38.885Z,99.90
2018-10-16T11:25:14.349Z,99.90
2018-10-16T11:27:50.315Z,99.90
2018-10-16T11:30:25.822Z,99.90
2018-10-16T11:33:01.489Z,99.90
2018-10-16T11:35:37.084Z,99.90
2018-10-16T11:38:13.522Z,99.90
2018-10-16T11:40:49.314Z,99.90
2018-10-16T11:43:26.259Z,99.90
2018-10-16T11:46:01.675Z,99.90
2018-10-16T11:48:37.741Z,99.90
2018-10-16T11:51:13.216Z,99.90
2018-10-16T11:53:48.676Z,99.90
2018-10-16T11:56:24.921Z,99.90
2018-10-16T11:59:00.586Z,99.90
2018-10-16T12:01:36.405Z,99.90
2018-10-16T12:04:12.076Z,99.90
2018-10-16T12:06:48.049Z,99.90
2018-10-16T12:09:24.617Z,99.90
2018-10-16T12:12:00.474Z,99.90
2018-10-16T12:14:36.067Z,99.90
2018-10-16T12:17:20.660Z,99.90
2018-10-16T12:20:00.776Z,99.90
2018-10-16T12:22:36.570Z,99.90
2018-10-16T12:25:12.732Z,99.90
2018-10-16T12:27:48.092Z,99.90
2018-10-16T12:30:23.802Z,99.90
2018-10-16T12:32:59.563Z,99.90
2018-10-16T12:35:35.387Z,99.90
2018-10-16T12:38:10.887Z,99.90
2018-10-16T12:40:46.654Z,99.90
2018-10-16T12:43:22.316Z,99.90
2018-10-16T12:45:58.189Z,99.90
2018-10-16T12:48:33.680Z,99.90
2018-10-16T12:51:09.431Z,99.90
2018-10-16T12:53:45.392Z,99.90
2018-10-16T12:56:20.943Z,99.90
2018-10-16T12:58:56.767Z,99.90
2018-10-16T13:01:32.455Z,99.90
2018-10-16T13:04:08.123Z,99.90
2018-10-16T13:06:43.907Z,99.90
2018-10-16T13:09:19.743Z,99.90
2018-10-16T13:11:55.085Z,99.90
2018-10-16T13:14:30.476Z,99.90
2018-10-16T13:17:06.364Z,98.80
2018-10-16T13:19:42.135Z,99.20
2018-10-16T13:22:17.810Z,97.00
2018-10-16T13:24:53.612Z,96.30
2018-10-16T13:27:29.874Z,94.90
2018-10-16T13:30:06.890Z,93.10
2018-10-16T13:32:42.956Z,93.20
2018-10-16T13:35:19.339Z,93.20
2018-10-16T13:37:54.939Z,94.10
2018-10-16T13:40:30.370Z,95.30
2018-10-16T13:43:06.392Z,96.30
2018-10-16T13:45:41.938Z,95.30
2018-10-16T13:48:17.930Z,94.10
2018-10-16T13:50:52.999Z,93.70
2018-10-16T13:53:28.998Z,93.80
2018-10-16T13:56:06.399Z,93.50
2018-10-16T13:58:42.430Z,94.30
2018-10-16T14:01:18.166Z,94.60
2018-10-16T14:03:53.747Z,95.40
2018-10-16T14:06:29.514Z,96.10
2018-10-16T14:09:06.680Z,95.80
2018-10-16T14:11:42.572Z,98.60
2018-10-16T14:14:18.515Z,99.90
2018-10-16T14:16:54.055Z,99.90
2018-10-16T14:19:29.834Z,99.90
2018-10-16T14:22:05.668Z,99.90
2018-10-16T14:24:41.559Z,99.90
2018-10-16T14:27:17.029Z,99.90
2018-10-16T14:29:52.657Z,99.90
2018-10-16T14:32:28.526Z,99.90
2018-10-16T14:35:04.070Z,99.90
2018-10-16T14:37:40.039Z,99.90
2018-10-16T14:40:16.461Z,99.90
2018-10-16T14:42:52.210Z,99.90
2018-10-16T14:45:28.011Z,99.90
2018-10-16T14:48:03.606Z,99.90
2018-10-16T14:50:39.377Z,99.90
2018-10-16T14:53:14.869Z,99.90
2018-10-16T14:55:50.787Z,99.90
2018-10-16T14:58:26.333Z,99.90
2018-10-16T15:01:02.462Z,99.90
2018-10-16T15:03:38.629Z,99.90
2018-10-16T15:06:14.561Z,99.90
2018-10-16T15:08:50.344Z,99.90
2018-10-16T15:11:26.005Z,99.90
2018-10-16T15:14:01.706Z,99.90
2018-10-16T15:16:37.377Z,99.90
2018-10-16T15:19:13.272Z,99.90
2018-10-16T15:21:48.642Z,99.90
2018-10-16T15:24:24.789Z,99.90
2018-10-16T15:27:00.636Z,99.90
2018-10-16T15:29:36.489Z,99.90
2018-10-16T15:32:12.179Z,99.90
2018-10-16T15:34:47.837Z,99.90
2018-10-16T15:37:23.083Z,99.90
2018-10-16T15:39:59.054Z,99.90
2018-10-16T15:42:34.805Z,99.90
2018-10-16T15:45:11.880Z,99.90
2018-10-16T15:47:47.216Z,99.90
2018-10-16T15:50:22.773Z,99.90
2018-10-16T15:52:58.670Z,99.90
2018-10-16T15:55:34.165Z,99.90
2018-10-16T15:58:09.941Z,99.90
2018-10-16T16:00:45.440Z,99.90
2018-10-16T16:03:21.463Z,99.90
2018-10-16T16:05:57.056Z,99.90
2018-10-16T16:08:32.902Z,99.90
2018-10-16T16:11:08.539Z,99.90
2018-10-16T16:13:43.657Z,99.90
2018-10-16T16:16:19.614Z,99.90
2018-10-16T16:18:55.509Z,99.90
2018-10-16T16:21:30.974Z,99.90
2018-10-16T16:24:06.702Z,99.90
2018-10-16T16:26:42.272Z,99.90
2018-10-16T16:29:18.326Z,99.90
2018-10-16T16:31:54.036Z,99.90
2018-10-16T16:34:29.615Z,99.90
2018-10-16T16:37:05.580Z,99.90
2018-10-16T16:39:42.904Z,99.90
2018-10-16T16:42:20.469Z,99.90
2018-10-16T16:44:58.809Z,99.90
2018-10-16T16:47:36.469Z,99.90
2018-10-16T16:50:15.822Z,99.90
2018-10-16T16:52:53.401Z,99.90
2018-10-16T16:55:29.490Z,99.90
2018-10-16T16:58:08.722Z,99.90
2018-10-16T17:00:46.237Z,99.90
2018-10-16T17:03:23.449Z,99.90
2018-10-16T17:06:00.813Z,99.90
2018-10-16T17:08:37.860Z,99.90
2018-10-16T17:11:16.662Z,99.90
2018-10-16T17:13:54.308Z,99.90
2018-10-16T17:16:31.358Z,99.90
2018-10-16T17:19:09.192Z,99.90
2018-10-16T17:21:45.265Z,99.90
2018-10-16T17:24:22.458Z,99.90
2018-10-16T17:26:59.554Z,99.90
2018-10-16T17:29:36.630Z,99.90
2018-10-16T17:32:12.501Z,99.90
2018-10-16T17:34:50.182Z,99.90
2018-10-16T17:37:26.101Z,99.90
2018-10-16T17:40:02.542Z,99.90
2018-10-16T17:42:38.598Z,99.90
2018-10-16T17:45:18.491Z,99.90
2018-10-16T17:47:58.909Z,99.90
2018-10-16T17:50:36.335Z,99.90
2018-10-16T17:53:15.069Z,99.90
2018-10-16T17:55:52.282Z,99.90
2018-10-16T17:58:29.121Z,99.90
2018-10-16T18:01:07.501Z,99.90
2018-10-16T18:03:47.338Z,99.90
2018-10-16T18:06:27.134Z,99.90
2018-10-16T18:09:06.510Z,99.90
2018-10-16T18:11:44.615Z,99.90
2018-10-16T18:14:22.937Z,99.90
2018-10-16T18:17:00.272Z,99.90
2018-10-16T18:19:37.141Z,99.90
2018-10-16T18:22:14.683Z,99.90
2018-10-16T18:24:50.937Z,99.90
2018-10-16T18:27:29.585Z,99.90
2018-10-16T18:30:06.929Z,99.90
2018-10-16T18:32:44.838Z,99.90
2018-10-16T18:35:22.800Z,99.90
2018-10-16T18:38:00.130Z,99.90
2018-10-16T18:40:38.526Z,99.90
2018-10-16T18:43:16.682Z,99.90
2018-10-16T18:45:53.074Z,99.90
2018-10-16T18:48:30.668Z,99.90
2018-10-16T18:51:07.530Z,99.90
2018-10-16T18:53:45.123Z,99.90
2018-10-16T18:56:22.500Z,99.90
2018-10-16T18:58:59.765Z,99.90
2018-10-16T19:01:36.529Z,99.90
2018-10-16T19:04:12.861Z,99.90
2018-10-16T19:06:50.755Z,99.90
2018-10-16T19:09:29.582Z,99.90
2018-10-16T19:12:06.074Z,99.90
2018-10-16T19:14:42.598Z,99.90
2018-10-16T19:17:19.777Z,99.90
2018-10-16T19:19:59.450Z,99.90
2018-10-16T19:22:36.810Z,99.90
2018-10-16T19:25:19.672Z,99.90
2018-10-16T19:28:02.574Z,99.90
2018-10-16T19:30:40.444Z,99.90
2018-10-16T19:33:18.201Z,99.90
2018-10-16T19:35:55.055Z,99.90
2018-10-16T19:38:34.600Z,99.90
2018-10-16T19:41:11.765Z,99.90
2018-10-16T19:43:50.783Z,99.90
2018-10-16T19:46:31.914Z,99.90
2018-10-16T19:49:09.916Z,99.90
2018-10-16T19:51:46.576Z,99.90
2018-10-16T19:54:23.251Z,99.90
2018-10-16T19:57:02.347Z,99.90
2018-10-16T19:59:40.943Z,99.90
2018-10-16T20:02:18.771Z,99.90
2018-10-16T20:04:58.987Z,99.90
2018-10-16T20:07:39.034Z,99.90
2018-10-16T20:10:17.517Z,99.90
2018-10-16T20:12:55.489Z,99.90
2018-10-16T20:15:36.698Z,99.90
2018-10-16T20:18:15.641Z,99.90
2018-10-16T20:20:55.241Z,99.90
2018-10-16T20:23:32.466Z,99.90
2018-10-16T20:26:10.037Z,99.90
2018-10-16T20:28:47.390Z,99.90
2018-10-16T20:31:26.936Z,99.90
2018-10-16T20:34:05.429Z,99.90
2018-10-16T20:36:41.770Z,99.90
2018-10-16T20:39:19.178Z,99.90
2018-10-16T20:41:58.363Z,99.90
2018-10-16T20:44:36.437Z,99.90
2018-10-16T20:47:13.602Z,99.90
2018-10-16T20:49:51.145Z,99.90
2018-10-16T20:52:27.594Z,99.90
2018-10-16T20:55:04.490Z,99.90
2018-10-16T20:57:41.627Z,99.90
2018-10-16T21:00:18.453Z,99.90
2018-10-16T21:02:55.580Z,99.90
2018-10-16T21:05:34.175Z,99.90
2018-10-16T21:08:11.870Z,99.90
2018-10-16T21:10:49.870Z,99.90
2018-10-16T21:13:28.419Z,99.90
2018-10-16T21:16:07.324Z,99.90
2018-10-16T21:18:43.885Z,99.90
2018-10-16T21:21:21.195Z,99.90
2018-10-16T21:24:01.387Z,99.90
2018-10-16T21:26:37.892Z,99.90
2018-10-16T21:29:16.434Z,99.90
2018-10-16T21:31:53.426Z,99.90
2018-10-16T21:34:32.413Z,99.90
2018-10-16T21:37:12.251Z,99.90
2018-10-16T21:39:49.075Z,99.90
2018-10-16T21:42:27.842Z,99.90
2018-10-16T21:45:04.906Z,99.90
2018-10-16T21:47:43.899Z,99.90
2018-10-16T21:50:22.909Z,99.90
2018-10-16T21:53:04.521Z,99.90
2018-10-16T21:55:40.833Z,99.90
2018-10-16T21:58:19.397Z,99.90
2018-10-16T22:01:09.013Z,99.90
2018-10-16T22:03:47.988Z,99.90
2018-10-16T22:06:25.953Z,99.90
2018-10-16T22:09:05.893Z,99.90
2018-10-16T22:11:45.997Z,99.90
2018-10-16T22:14:22.646Z,99.90
2018-10-16T22:17:02.927Z,99.90
2018-10-16T22:19:41.496Z,99.90
2018-10-16T22:22:18.791Z,99.90
2018-10-16T22:24:56.892Z,99.90
2018-10-16T22:27:34.186Z,99.90
2018-10-16T22:30:13.937Z,99.90
2018-10-16T22:32:50.157Z,99.90
2018-10-16T22:35:29.603Z,99.90
2018-10-16T22:38:09.450Z,99.90
2018-10-16T22:40:47.330Z,99.90
2018-10-16T22:43:26.950Z,99.90
2018-10-16T22:46:03.960Z,99.90
2018-10-16T22:48:41.727Z,99.90
2018-10-16T22:51:19.413Z,99.90
2018-10-16T22:54:00.973Z,99.90
2018-10-16T22:56:39.407Z,99.90
2018-10-16T22:59:16.423Z,99.90
2018-10-16T23:01:53.652Z,99.90
2018-10-16T23:04:34.414Z,99.90
2018-10-16T23:07:13.454Z,99.90
2018-10-16T23:09:51.553Z,99.90
2018-10-16T23:12:28.581Z,99.90
2018-10-16T23:15:07.213Z,99.90
2018-10-16T23:17:43.154Z,99.90
2018-10-16T23:20:20.806Z,99.90
2018-10-16T23:22:59.412Z,99.90
2018-10-16T23:25:37.787Z,99.90
2018-10-16T23:28:16.396Z,99.90
2018-10-16T23:30:54.878Z,99.90
2018-10-16T23:33:30.789Z,99.90
2018-10-16T23:36:09.460Z,99.90
2018-10-16T23:38:47.750Z,99.90
2018-10-16T23:41:23.727Z,99.90
2018-10-16T23:44:00.753Z,99.90
2018-10-16T23:46:38.225Z,99.90
2018-10-16T23:49:15.684Z,99.90
2018-10-16T23:51:52.349Z,99.90
2018-10-16T23:54:29.585Z,99.90
2018-10-16T23:57:05.785Z,99.90
2018-10-16T23:59:43.153Z,99.90
